Fort Laramie, Wyoming
Current Conditions -  °F | °C
As of 5:15 PM on Thursday 27 Nov 2014 (Local Time) from KGUR Reporting Station
Clear Clear  
Wind Chill: 55°   Ceiling: Unl
Heat Index: 55°   Visibility: 10mi
Dew Point: 31°   Wind: 5mph
Humidity: 40%   Direction: 240°WSW
Pressure: 30.01"   Gusts: NA
Location:  42.21°N, 104.52°W
Report Text: KGUR 280015Z AUTO 24004KT 10SM CLR 13/M01 A3001 RMK AO2 T01251008
Loading
Personal Weather Stations






























Interactive Weather Map New forecast layout! Learn more

10-Day Weather Forecast

Advertisements
Track Severe Weather on mobile